Time;durP1;ratioP1;P1;durP2;ratioP2;P2;SDS_P1;SDS_P2;PMS_P1;PMS_P2;Temp;Humidity;BMP_temperature;BMP_pressure;BME280_temperature;BME280_humidity;BME280_pressure;Samples;Min_cycle;Max_cycle;Signal;HPM_P1;HPM_P2
2023/06/05 00:00:53;;;;;;;4.80;4.03;;;14.50;99.90;;;;;;4986112;28;20447;-65
2023/06/05 00:03:19;;;;;;;6.27;4.23;;;14.50;99.90;;;;;;4987825;28;20461;-64
2023/06/05 00:05:45;;;;;;;5.40;4.20;;;14.40;99.90;;;;;;4988139;28;20791;-65
2023/06/05 00:08:11;;;;;;;6.27;4.70;;;14.40;99.90;;;;;;4987753;28;20589;-65
2023/06/05 00:10:37;;;;;;;4.53;4.00;;;14.30;99.90;;;;;;4987726;28;20468;-64
2023/06/05 00:13:02;;;;;;;5.23;4.53;;;14.20;99.90;;;;;;4987648;28;20462;-65
2023/06/05 00:15:28;;;;;;;5.10;3.97;;;14.20;99.90;;;;;;4986450;28;20190;-65
2023/06/05 00:17:55;;;;;;;9.40;4.83;;;14.20;99.90;;;;;;4987665;28;20653;-67
2023/06/05 00:20:20;;;;;;;5.77;4.60;;;14.20;99.90;;;;;;4987646;28;20213;-65
2023/06/05 00:22:47;;;;;;;9.73;4.70;;;14.10;99.90;;;;;;4986244;28;20553;-66
2023/06/05 00:25:12;;;;;;;5.80;4.27;;;14.10;99.90;;;;;;4987335;28;20243;-64
2023/06/05 00:27:40;;;;;;;5.93;4.90;;;14.00;99.90;;;;;;4987473;28;20429;-65
2023/06/05 00:30:07;;;;;;;6.37;4.60;;;14.00;99.90;;;;;;4987428;28;20186;-65
2023/06/05 00:32:33;;;;;;;4.83;4.07;;;13.80;99.90;;;;;;4987290;28;20433;-65
2023/06/05 00:34:58;;;;;;;6.23;4.53;;;13.60;99.90;;;;;;4987176;28;20460;-65
2023/06/05 00:37:25;;;;;;;9.67;4.97;;;13.50;99.90;;;;;;4985662;28;20289;-65
2023/06/05 00:39:50;;;;;;;6.47;4.47;;;13.30;99.90;;;;;;4987143;28;20209;-65
2023/06/05 00:42:16;;;;;;;7.70;4.53;;;13.20;99.90;;;;;;4986909;28;20584;-65
2023/06/05 00:44:42;;;;;;;7.90;4.80;;;13.10;99.90;;;;;;4987180;28;20205;-66
2023/06/05 00:47:07;;;;;;;9.27;4.80;;;13.20;99.90;;;;;;4987131;28;20248;-65
2023/06/05 00:49:33;;;;;;;5.37;4.57;;;13.30;99.90;;;;;;4986943;28;20597;-66
2023/06/05 00:51:59;;;;;;;6.73;4.90;;;13.30;99.90;;;;;;4986925;28;20570;-65
2023/06/05 00:54:25;;;;;;;8.87;6.20;;;13.40;99.90;;;;;;4986975;28;20182;-65
2023/06/05 00:56:52;;;;;;;6.00;5.07;;;13.30;99.90;;;;;;4986933;28;20425;-65
2023/06/05 00:59:18;;;;;;;5.80;4.50;;;13.30;99.90;;;;;;4986759;28;20202;-65
2023/06/05 01:01:45;;;;;;;5.57;4.40;;;13.20;99.90;;;;;;4986953;28;20440;-65
2023/06/05 01:04:11;;;;;;;8.43;5.00;;;13.30;99.90;;;;;;4985375;28;20534;-65
2023/06/05 01:06:40;;;;;;;6.30;4.83;;;13.30;99.90;;;;;;4986853;28;20915;-65
2023/06/05 01:09:06;;;;;;;13.07;7.80;;;13.40;99.90;;;;;;4986981;28;20209;-64
2023/06/05 01:11:44;;;;;;;14.50;8.40;;;13.30;99.90;;;;;;4986970;28;20765;-66
2023/06/05 01:14:22;;;;;;;8.53;5.20;;;13.10;99.90;;;;;;4986713;28;20928;-64
2023/06/05 01:16:56;;;;;;;6.47;4.90;;;12.90;99.90;;;;;;4986793;28;20458;-64
2023/06/05 01:19:28;;;;;;;7.33;4.90;;;12.60;99.90;;;;;;4986843;28;20460;-64
2023/06/05 01:21:58;;;;;;;9.03;5.67;;;12.50;99.90;;;;;;4986709;28;21004;-66
2023/06/05 01:24:25;;;;;;;6.53;5.00;;;12.70;99.90;;;;;;4986572;28;21010;-65
2023/06/05 01:27:15;;;;;;;6.30;4.90;;;12.80;99.90;;;;;;4986569;28;20925;-65
2023/06/05 01:29:56;;;;;;;8.20;4.90;;;12.80;99.90;;;;;;4986325;28;20941;-65
2023/06/05 01:32:55;;;;;;;6.50;4.73;;;12.80;99.90;;;;;;4986586;28;20458;-65
2023/06/05 01:35:27;;;;;;;6.33;4.63;;;12.90;99.90;;;;;;4986444;28;20799;-65
2023/06/05 01:37:54;;;;;;;7.80;4.80;;;12.90;99.90;;;;;;4986442;28;20433;-66
2023/06/05 01:40:22;;;;;;;9.77;5.00;;;13.00;99.90;;;;;;4986547;28;20420;-64
2023/06/05 01:42:50;;;;;;;5.97;4.50;;;12.90;99.90;;;;;;4986473;28;20484;-66
2023/06/05 01:45:17;;;;;;;9.87;5.27;;;12.80;99.90;;;;;;4986740;28;20542;-65
2023/06/05 01:47:43;;;;;;;7.30;4.80;;;12.70;99.90;;;;;;4986843;28;20485;-65
2023/06/05 01:50:12;;;;;;;6.20;4.93;;;12.70;99.90;;;;;;4987082;28;20413;-65
2023/06/05 01:52:39;;;;;;;6.63;4.77;;;12.70;99.90;;;;;;4987293;28;20427;-65
2023/06/05 01:55:06;;;;;;;8.17;4.57;;;12.70;99.90;;;;;;4987337;28;20455;-65
2023/06/05 01:57:33;;;;;;;7.43;4.23;;;12.90;99.90;;;;;;4986948;28;20474;-65
2023/06/05 02:00:06;;;;;;;7.50;4.60;;;13.10;99.90;;;;;;4986951;28;20420;-65
2023/06/05 02:02:32;;;;;;;9.50;4.80;;;13.10;99.90;;;;;;4987097;28;20487;-65
2023/06/05 02:04:59;;;;;;;6.13;4.50;;;13.00;99.90;;;;;;4987152;28;21012;-66
2023/06/05 02:07:24;;;;;;;6.70;4.00;;;13.10;99.90;;;;;;4986856;28;20435;-64
2023/06/05 02:09:50;;;;;;;7.90;4.10;;;12.80;99.90;;;;;;4986968;28;20428;-65
2023/06/05 02:12:16;;;;;;;4.97;4.37;;;12.40;99.90;;;;;;4985605;28;20192;-64
2023/06/05 02:14:44;;;;;;;5.70;4.50;;;12.30;99.90;;;;;;4986925;28;20258;-66
2023/06/05 02:17:13;;;;;;;10.23;4.87;;;12.20;99.90;;;;;;4986605;28;20922;-65
2023/06/05 02:19:40;;;;;;;5.97;4.50;;;12.20;99.90;;;;;;4986614;28;20528;-64
2023/06/05 02:22:06;;;;;;;6.83;4.80;;;12.10;99.90;;;;;;4985178;28;20959;-64
2023/06/05 02:24:31;;;;;;;6.17;4.53;;;12.20;99.90;;;;;;4987058;28;20417;-64
2023/06/05 02:26:57;;;;;;;7.60;5.07;;;12.00;99.90;;;;;;4985293;28;20446;-65
2023/06/05 02:29:23;;;;;;;6.70;4.50;;;11.90;99.90;;;;;;4986253;28;20212;-66
2023/06/05 02:31:49;;;;;;;8.00;4.90;;;11.70;99.90;;;;;;4986157;28;20214;-66
2023/06/05 02:34:16;;;;;;;6.63;4.83;;;11.90;99.90;;;;;;4985959;28;20304;-66
2023/06/05 02:36:45;;;;;;;6.93;5.63;;;11.90;99.90;;;;;;4985976;28;20206;-66
2023/06/05 02:39:11;;;;;;;8.87;3.97;;;11.90;99.90;;;;;;4985766;28;20459;-66
2023/06/05 02:41:38;;;;;;;9.23;5.07;;;11.90;99.90;;;;;;4985747;28;20877;-65
2023/06/05 02:44:03;;;;;;;8.60;5.20;;;12.00;99.90;;;;;;4985774;28;20467;-66
2023/06/05 02:46:29;;;;;;;6.40;4.20;;;12.00;99.90;;;;;;4987933;28;20431;-65
2023/06/05 02:48:54;;;;;;;6.10;4.63;;;12.20;99.90;;;;;;4988958;28;20201;-66
2023/06/05 02:51:20;;;;;;;9.37;5.60;;;12.20;99.90;;;;;;4989085;28;20863;-66
2023/06/05 02:53:46;;;;;;;6.90;4.90;;;12.20;99.90;;;;;;4989099;28;20216;-65
2023/06/05 02:56:13;;;;;;;9.17;5.20;;;12.20;99.90;;;;;;4988942;28;20578;-65
2023/06/05 02:58:39;;;;;;;11.67;5.30;;;12.00;99.90;;;;;;4988892;28;20268;-66
2023/06/05 03:01:08;;;;;;;6.90;5.17;;;12.10;99.90;;;;;;4988911;28;20447;-65
2023/06/05 03:03:34;;;;;;;10.13;4.50;;;12.00;99.90;;;;;;4988841;28;20464;-66
2023/06/05 03:06:04;;;;;;;8.43;5.40;;;11.90;99.90;;;;;;4988974;28;20426;-66
2023/06/05 03:08:33;;;;;;;5.50;3.93;;;11.90;99.90;;;;;;4988932;28;20444;-65
2023/06/05 03:11:00;;;;;;;6.27;5.10;;;11.90;99.90;;;;;;4988773;28;20491;-65
2023/06/05 03:13:25;;;;;;;5.80;4.80;;;11.90;99.90;;;;;;4988854;28;20488;-66
2023/06/05 03:15:53;;;;;;;9.40;4.50;;;11.80;99.90;;;;;;4987505;28;20440;-65
2023/06/05 03:18:20;;;;;;;6.47;4.93;;;11.70;99.90;;;;;;4988895;28;20262;-65
2023/06/05 03:20:47;;;;;;;8.07;4.87;;;11.70;99.90;;;;;;4971692;28;20446;-66
2023/06/05 03:23:13;;;;;;;6.80;5.17;;;11.70;99.90;;;;;;4989136;28;20525;-65
2023/06/05 03:25:38;;;;;;;13.60;5.50;;;11.70;99.90;;;;;;4989277;28;20421;-67
2023/06/05 03:28:04;;;;;;;5.77;4.23;;;11.80;99.90;;;;;;4989239;28;20228;-65
2023/06/05 03:30:29;;;;;;;6.57;3.67;;;11.70;99.90;;;;;;4989424;28;20243;-65
2023/06/05 03:32:55;;;;;;;10.53;4.27;;;11.60;99.90;;;;;;4989217;28;20196;-65
2023/06/05 03:35:21;;;;;;;6.93;4.63;;;11.40;99.90;;;;;;4989261;28;20610;-66
2023/06/05 03:37:46;;;;;;;7.40;4.90;;;11.60;99.90;;;;;;4987814;28;20212;-65
2023/06/05 03:40:12;;;;;;;4.63;4.10;;;11.70;99.90;;;;;;4989221;28;20748;-64
2023/06/05 03:42:37;;;;;;;11.07;4.97;;;11.50;99.90;;;;;;4988693;28;20308;-65
2023/06/05 03:45:04;;;;;;;7.17;5.27;;;11.50;99.90;;;;;;4988858;28;20673;-64
2023/06/05 03:47:29;;;;;;;10.63;4.80;;;11.40;99.90;;;;;;4988431;28;20262;-65
2023/06/05 03:49:55;;;;;;;5.83;4.53;;;11.50;99.90;;;;;;4988373;28;21223;-65
2023/06/05 03:52:23;;;;;;;7.77;4.60;;;11.70;99.90;;;;;;4987262;28;20185;-64
2023/06/05 03:54:53;;;;;;;6.27;4.37;;;11.70;99.90;;;;;;4987148;28;20428;-64
2023/06/05 03:57:20;;;;;;;5.80;4.50;;;11.70;99.90;;;;;;4985212;28;20469;-65
2023/06/05 03:59:46;;;;;;;7.10;3.83;;;11.80;99.90;;;;;;4986490;28;20537;-64
2023/06/05 04:02:12;;;;;;;6.40;4.80;;;11.70;99.90;;;;;;4984970;28;20493;-64
2023/06/05 04:04:38;;;;;;;8.00;4.37;;;11.80;99.90;;;;;;4986633;28;20438;-66
2023/06/05 04:07:05;;;;;;;8.93;4.67;;;11.90;99.90;;;;;;4985004;28;20431;-65
2023/06/05 04:09:31;;;;;;;10.93;4.27;;;12.00;99.90;;;;;;4986303;28;20220;-65
2023/06/05 04:11:58;;;;;;;26.63;5.20;;;12.00;99.90;;;;;;4986322;28;20417;-66
2023/06/05 04:14:24;;;;;;;18.03;5.00;;;12.10;99.90;;;;;;4984605;28;20441;-64
2023/06/05 04:16:50;;;;;;;15.20;4.90;;;12.10;99.90;;;;;;4984878;28;20429;-64
2023/06/05 04:19:16;;;;;;;11.33;5.07;;;12.20;99.90;;;;;;4986652;28;20213;-65
2023/06/05 04:21:42;;;;;;;13.40;5.27;;;12.30;99.90;;;;;;4986525;28;20891;-65
2023/06/05 04:24:09;;;;;;;19.50;5.33;;;12.30;99.90;;;;;;4984400;28;20679;-65
2023/06/05 04:26:41;;;;;;;7.13;5.00;;;12.40;99.90;;;;;;4986524;28;20435;-65
2023/06/05 04:29:12;;;;;;;12.93;5.27;;;12.40;99.90;;;;;;4986068;28;20456;-65
2023/06/05 04:31:40;;;;;;;6.67;5.20;;;12.60;99.90;;;;;;4986439;28;20422;-65
2023/06/05 04:34:07;;;;;;;5.30;4.27;;;12.50;99.90;;;;;;4986055;28;20482;-65
2023/06/05 04:36:34;;;;;;;5.90;4.83;;;12.40;99.90;;;;;;4986090;28;20435;-66
2023/06/05 04:39:01;;;;;;;6.27;4.33;;;12.50;99.90;;;;;;4985948;28;20455;-64
2023/06/05 04:41:29;;;;;;;9.23;4.70;;;12.60;99.90;;;;;;4985763;28;20933;-65
2023/06/05 04:43:57;;;;;;;8.77;5.03;;;12.60;99.90;;;;;;4985799;28;20468;-65
2023/06/05 04:46:23;;;;;;;10.67;4.90;;;12.70;99.90;;;;;;4985900;28;20504;-65
2023/06/05 04:48:50;;;;;;;5.97;4.50;;;12.80;99.90;;;;;;4985701;28;20949;-65
2023/06/05 04:51:15;;;;;;;8.40;4.60;;;12.90;99.90;;;;;;4985938;28;20447;-65
2023/06/05 04:53:41;;;;;;;16.53;5.00;;;13.00;99.90;;;;;;4985838;28;20959;-66
2023/06/05 04:56:07;;;;;;;7.40;4.13;;;13.20;99.90;;;;;;4984316;28;20220;-65
2023/06/05 04:58:33;;;;;;;5.70;4.03;;;13.20;99.90;;;;;;4985579;28;20498;-65
2023/06/05 05:01:04;;;;;;;11.33;5.30;;;13.30;99.90;;;;;;4984431;28;20433;-65
2023/06/05 05:03:31;;;;;;;8.20;4.60;;;13.40;99.90;;;;;;4985395;28;20716;-65
2023/06/05 05:05:57;;;;;;;7.97;3.80;;;13.40;99.90;;;;;;4985638;28;20508;-65
2023/06/05 05:08:22;;;;;;;9.90;4.27;;;13.60;99.90;;;;;;4984919;28;21100;-65
2023/06/05 05:10:48;;;;;;;5.13;3.70;;;13.60;99.90;;;;;;4985510;28;20190;-65
2023/06/05 05:13:14;;;;;;;4.90;3.70;;;13.70;99.90;;;;;;4985579;28;20240;-65
2023/06/05 05:15:39;;;;;;;6.93;3.90;;;13.80;99.90;;;;;;4985484;28;20653;-65
2023/06/05 05:18:05;;;;;;;6.00;3.57;;;13.90;99.90;;;;;;4985288;28;20217;-65
2023/06/05 05:20:32;;;;;;;15.10;4.00;;;14.20;99.90;;;;;;4985388;28;20548;-65
2023/06/05 05:23:00;;;;;;;8.87;3.80;;;14.40;99.90;;;;;;4985283;28;20213;-64
2023/06/05 05:25:26;;;;;;;6.43;4.47;;;14.40;99.90;;;;;;4984394;28;20417;-66
2023/06/05 05:27:52;;;;;;;8.77;4.70;;;14.50;99.90;;;;;;4985319;28;20446;-65
2023/06/05 05:30:17;;;;;;;6.50;4.10;;;14.60;99.90;;;;;;4985310;28;20815;-65
2023/06/05 05:32:43;;;;;;;7.43;4.40;;;14.60;99.90;;;;;;4985558;28;20214;-66
2023/06/05 05:35:08;;;;;;;6.17;4.60;;;14.70;99.90;;;;;;4985422;28;20192;-65
2023/06/05 05:37:34;;;;;;;6.13;4.50;;;14.80;99.90;;;;;;4985858;28;20680;-65
2023/06/05 05:40:00;;;;;;;11.50;4.97;;;14.80;99.90;;;;;;4985420;28;20643;-65
2023/06/05 05:42:25;;;;;;;8.40;4.57;;;14.90;99.90;;;;;;4985538;28;20213;-65
2023/06/05 05:44:51;;;;;;;6.93;4.50;;;15.00;99.90;;;;;;4985787;28;20663;-65
2023/06/05 05:47:16;;;;;;;8.13;4.10;;;15.10;99.90;;;;;;4986602;28;20645;-65
2023/06/05 05:49:42;;;;;;;5.20;4.40;;;15.30;99.90;;;;;;4986217;28;20210;-66
2023/06/05 05:52:09;;;;;;;7.70;4.93;;;15.40;99.90;;;;;;4986497;28;20210;-65
2023/06/05 05:54:34;;;;;;;10.40;5.13;;;15.60;99.90;;;;;;4986340;28;20186;-65
2023/06/05 05:57:00;;;;;;;7.73;5.00;;;15.80;99.90;;;;;;4986133;28;20437;-65
2023/06/05 05:59:26;;;;;;;7.17;5.23;;;16.10;99.90;;;;;;4986331;28;20207;-65
2023/06/05 06:01:52;;;;;;;6.40;4.80;;;16.20;99.90;;;;;;4986571;28;20245;-66
2023/06/05 06:04:18;;;;;;;10.23;5.30;;;16.30;99.90;;;;;;4986715;28;20342;-65
2023/06/05 06:06:47;;;;;;;8.47;5.27;;;16.30;99.90;;;;;;4986878;28;21089;-65
2023/06/05 06:09:13;;;;;;;10.93;5.60;;;16.40;99.90;;;;;;4986819;28;20528;-65
2023/06/05 06:11:39;;;;;;;8.80;5.07;;;16.50;99.90;;;;;;4986807;28;20424;-66
2023/06/05 06:14:05;;;;;;;13.60;5.10;;;16.60;99.90;;;;;;4985801;28;20430;-65
2023/06/05 06:16:31;;;;;;;6.00;5.03;;;16.70;99.90;;;;;;4986823;28;20442;-65
2023/06/05 06:18:57;;;;;;;5.40;4.90;;;16.80;99.90;;;;;;4986900;28;20633;-66
2023/06/05 06:21:22;;;;;;;5.30;4.80;;;16.90;99.90;;;;;;4988743;28;20462;-66
2023/06/05 06:23:48;;;;;;;7.73;5.03;;;17.00;99.90;;;;;;4990204;28;20725;-65
2023/06/05 06:26:15;;;;;;;10.10;4.97;;;17.00;99.90;;;;;;4988906;28;20201;-65
2023/06/05 06:28:41;;;;;;;9.80;5.37;;;17.10;99.90;;;;;;4990129;28;20789;-64
2023/06/05 06:31:07;;;;;;;13.93;5.40;;;17.20;98.30;;;;;;4990086;28;20516;-65
2023/06/05 06:33:32;;;;;;;6.20;5.27;;;17.20;99.20;;;;;;4990179;28;20454;-65
2023/06/05 06:35:58;;;;;;;9.13;5.50;;;17.30;97.10;;;;;;4990036;28;20431;-65
2023/06/05 06:38:30;;;;;;;8.20;5.87;;;17.40;97.50;;;;;;4989522;28;20217;-65
2023/06/05 06:40:57;;;;;;;8.60;5.33;;;17.40;95.80;;;;;;4989254;28;20453;-65
2023/06/05 06:43:23;;;;;;;6.23;4.57;;;17.40;97.60;;;;;;4989531;28;20956;-65
2023/06/05 06:45:50;;;;;;;9.27;4.73;;;17.40;96.90;;;;;;4989274;28;20513;-66
2023/06/05 06:48:16;;;;;;;6.63;4.73;;;17.50;96.90;;;;;;4989138;28;20947;-66
2023/06/05 06:50:42;;;;;;;8.10;5.80;;;17.50;96.40;;;;;;4989176;28;21154;-65
2023/06/05 06:53:08;;;;;;;15.20;5.70;;;17.60;96.00;;;;;;4987838;28;20439;-65
2023/06/05 06:55:34;;;;;;;12.40;5.23;;;17.70;95.60;;;;;;4988982;28;20438;-65
2023/06/05 06:57:59;;;;;;;9.23;5.97;;;17.80;95.20;;;;;;4989011;28;20239;-66
2023/06/05 07:00:25;;;;;;;11.03;5.70;;;18.00;96.90;;;;;;4988868;28;20453;-65
2023/06/05 07:02:51;;;;;;;13.03;5.57;;;18.20;96.30;;;;;;4988920;28;20225;-65
2023/06/05 07:05:19;;;;;;;12.80;5.00;;;18.10;95.50;;;;;;4988861;28;20193;-66
2023/06/05 07:07:45;;;;;;;7.90;5.17;;;18.20;96.70;;;;;;4987586;28;20640;-65
2023/06/05 07:10:11;;;;;;;14.60;4.60;;;18.40;96.30;;;;;;4988783;28;20729;-66
2023/06/05 07:12:37;;;;;;;15.27;4.67;;;18.70;96.00;;;;;;4988960;28;20420;-70
2023/06/05 07:15:03;;;;;;;18.63;5.70;;;18.70;94.60;;;;;;4988752;28;20196;-70
2023/06/05 07:17:30;;;;;;;7.70;4.80;;;18.70;96.40;;;;;;4989004;28;20181;-70
2023/06/05 07:19:58;;;;;;;14.10;6.00;;;18.70;96.10;;;;;;4988888;28;20189;-69
2023/06/05 07:22:26;;;;;;;10.10;5.30;;;18.70;94.90;;;;;;4971356;28;20439;-70
2023/06/05 07:24:53;;;;;;;13.37;5.20;;;18.60;94.70;;;;;;4988654;28;20786;-69
2023/06/05 12:28:19;;;;;;;11.60;4.90;;;26.10;60.40;;;;;;5148239;27;20340;-71
2023/06/05 12:30:45;;;;;;;11.43;4.70;;;26.90;60.50;;;;;;5145221;27;20424;-70
2023/06/05 12:33:10;;;;;;;5.27;4.23;;;27.00;59.90;;;;;;5146796;27;20406;-72
2023/06/05 12:35:36;;;;;;;10.33;4.73;;;26.90;59.10;;;;;;5146827;27;20238;-71
2023/06/05 12:38:02;;;;;;;7.00;4.80;;;27.00;59.60;;;;;;5147030;27;20197;-71
2023/06/05 12:40:28;;;;;;;35.10;6.67;;;26.70;58.90;;;;;;5146906;27;20247;-71
2023/06/05 12:42:55;;;;;;;19.07;4.77;;;26.80;59.50;;;;;;5146788;27;20412;-70
2023/06/05 12:45:22;;;;;;;8.27;4.87;;;26.90;58.10;;;;;;5145431;27;20183;-70
2023/06/05 12:47:47;;;;;;;20.50;5.77;;;26.80;59.00;;;;;;5146732;27;20432;-71
2023/06/05 12:50:13;;;;;;;21.00;4.87;;;26.40;58.30;;;;;;5146778;27;20783;-72
2023/06/05 12:52:40;;;;;;;57.13;7.60;;;26.10;60.00;;;;;;5146810;27;20444;-70
2023/06/05 12:55:07;;;;;;;24.67;5.87;;;25.90;59.90;;;;;;5146458;27;20172;-71
2023/06/05 12:57:34;;;;;;;8.53;5.13;;;25.90;60.70;;;;;;5144936;27;20993;-71
2023/06/05 13:00:09;;;;;;;19.20;4.93;;;25.90;56.80;;;;;;5146403;27;20413;-71
2023/06/05 13:02:36;;;;;;;13.43;5.27;;;26.20;58.30;;;;;;5146252;27;20843;-71
2023/06/05 13:05:02;;;;;;;12.90;4.67;;;26.50;59.60;;;;;;5146110;27;20925;-72
2023/06/05 13:07:29;;;;;;;9.00;4.93;;;26.80;58.60;;;;;;5145760;27;20442;-70
2023/06/05 13:09:55;;;;;;;7.90;5.23;;;26.80;56.50;;;;;;5145919;27;20414;-72
2023/06/05 13:12:20;;;;;;;5.43;4.93;;;27.00;56.80;;;;;;5144305;27;20426;-71
2023/06/05 13:14:46;;;;;;;10.33;4.70;;;27.10;57.40;;;;;;5145603;27;20406;-71
2023/06/05 13:17:12;;;;;;;7.50;5.00;;;27.20;57.10;;;;;;5145218;27;20295;-72
2023/06/05 13:19:38;;;;;;;7.37;5.27;;;27.30;55.50;;;;;;5143929;27;20177;-71
2023/06/05 13:22:04;;;;;;;5.83;4.40;;;27.00;55.50;;;;;;5145148;27;20179;-71
2023/06/05 13:24:29;;;;;;;8.50;4.30;;;26.90;55.40;;;;;;5145606;27;20176;-71
2023/06/05 13:26:55;;;;;;;6.40;4.00;;;27.00;55.00;;;;;;5155625;27;20470;-71
2023/06/05 13:29:20;;;;;;;10.80;4.97;;;27.10;56.30;;;;;;5152113;27;20787;-71
2023/06/05 13:31:46;;;;;;;7.60;4.80;;;27.10;54.70;;;;;;5152352;27;20237;-71
2023/06/05 13:34:12;;;;;;;8.07;4.70;;;27.00;54.80;;;;;;5152360;27;20704;-71
2023/06/05 13:36:38;;;;;;;6.17;4.53;;;27.10;54.40;;;;;;5152143;27;20214;-71
2023/06/05 13:39:04;;;;;;;7.70;5.00;;;27.10;54.30;;;;;;5152219;27;20237;-70
2023/06/05 13:41:29;;;;;;;12.30;4.57;;;27.20;55.60;;;;;;5152009;27;20421;-71
2023/06/05 13:43:57;;;;;;;15.63;4.30;;;27.30;55.50;;;;;;5152020;27;20177;-71
2023/06/05 13:46:23;;;;;;;6.50;4.60;;;27.40;54.60;;;;;;5152019;27;20653;-71
2023/06/05 13:48:49;;;;;;;14.63;4.80;;;27.40;55.00;;;;;;5152008;27;20424;-71
2023/06/05 13:51:15;;;;;;;5.27;4.77;;;27.50;54.60;;;;;;5151841;27;20180;-71
2023/06/05 13:53:41;;;;;;;7.73;4.17;;;27.50;55.20;;;;;;5152038;27;20185;-71
2023/06/05 13:56:07;;;;;;;10.17;4.73;;;27.60;55.90;;;;;;5152063;27;20596;-71
2023/06/05 13:58:32;;;;;;;9.43;4.23;;;27.50;55.50;;;;;;5151666;27;20296;-71
2023/06/05 14:01:01;;;;;;;6.67;4.70;;;27.30;54.00;;;;;;5151893;27;20270;-71
2023/06/05 14:03:27;;;;;;;5.30;4.30;;;26.80;54.50;;;;;;5151649;27;20612;-71
2023/06/05 14:05:53;;;;;;;5.53;4.90;;;26.50;54.40;;;;;;5151292;27;20420;-71
2023/06/05 14:08:19;;;;;;;10.27;4.87;;;26.40;54.20;;;;;;5151231;27;20842;-71
2023/06/05 14:10:45;;;;;;;5.37;4.23;;;26.30;53.70;;;;;;5151471;27;20216;-69
2023/06/05 14:13:11;;;;;;;7.60;5.20;;;26.40;54.00;;;;;;5132535;27;20428;-73
2023/06/05 14:15:36;;;;;;;4.63;4.17;;;26.50;53.60;;;;;;5151248;27;21017;-71
2023/06/05 14:18:04;;;;;;;8.33;4.40;;;26.60;54.50;;;;;;5151550;27;20437;-72
2023/06/05 14:20:31;;;;;;;6.30;4.07;;;26.50;54.10;;;;;;5151189;27;20212;-71
2023/06/05 14:22:57;;;;;;;5.50;4.60;;;26.70;54.20;;;;;;5151522;27;21221;-72
2023/06/05 14:25:25;;;;;;;4.70;4.23;;;26.70;53.50;;;;;;5151259;27;20469;-71
2023/06/05 14:27:56;;;;;;;7.37;5.10;;;26.80;56.40;;;;;;5151049;27;20976;-71
2023/06/05 14:30:23;;;;;;;14.30;4.60;;;26.80;55.00;;;;;;5151143;27;20410;-71
2023/06/05 14:32:49;;;;;;;6.33;4.83;;;26.50;53.80;;;;;;5132419;27;20773;-71
2023/06/05 14:35:16;;;;;;;7.07;4.40;;;26.20;54.00;;;;;;5150814;27;20478;-71
2023/06/05 14:37:42;;;;;;;8.60;4.13;;;26.10;53.50;;;;;;5150874;27;20237;-71
2023/06/05 14:40:08;;;;;;;8.10;4.97;;;26.30;54.20;;;;;;5149709;27;20412;-72
2023/06/05 14:42:34;;;;;;;6.57;5.20;;;26.30;53.50;;;;;;5151047;27;20402;-69
2023/06/05 14:44:59;;;;;;;5.53;5.03;;;26.40;54.50;;;;;;5114818;27;20432;-71
2023/06/05 14:47:25;;;;;;;4.67;4.27;;;26.50;55.90;;;;;;5150416;27;20200;-72
2023/06/05 14:49:50;;;;;;;8.90;5.20;;;26.60;56.00;;;;;;5150285;27;20556;-72
2023/06/05 14:52:16;;;;;;;6.77;4.50;;;26.70;54.80;;;;;;5150451;27;20223;-71
2023/06/05 14:54:42;;;;;;;5.10;4.50;;;26.70;54.10;;;;;;5150414;27;20587;-71
2023/06/05 14:57:07;;;;;;;5.20;4.43;;;26.40;54.40;;;;;;5150120;27;20466;-72
2023/06/05 14:59:33;;;;;;;5.00;4.17;;;26.20;54.40;;;;;;5150030;27;20184;-71
2023/06/05 15:01:59;;;;;;;5.13;4.63;;;25.90;54.40;;;;;;5150021;27;20189;-71
2023/06/05 15:04:26;;;;;;;8.90;4.97;;;25.60;55.50;;;;;;5131870;27;20856;-71
2023/06/05 15:06:53;;;;;;;6.60;4.73;;;25.30;55.00;;;;;;5150065;27;20732;-71
2023/06/05 15:09:19;;;;;;;6.80;4.77;;;25.10;55.50;;;;;;5150039;27;20426;-71
2023/06/05 15:11:45;;;;;;;7.53;5.50;;;25.10;57.50;;;;;;5150172;27;20449;-70
2023/06/05 15:14:10;;;;;;;7.70;4.20;;;25.20;58.10;;;;;;5149795;27;20449;-71
2023/06/05 15:16:36;;;;;;;8.40;4.67;;;25.30;58.80;;;;;;5149843;27;21084;-71
2023/06/05 15:19:02;;;;;;;6.37;4.30;;;25.40;58.40;;;;;;5149404;27;20187;-71
2023/06/05 15:21:27;;;;;;;10.53;4.83;;;25.60;58.00;;;;;;5149315;27;20702;-71
2023/06/05 15:23:53;;;;;;;6.40;5.13;;;25.70;57.90;;;;;;5149315;27;20218;-71
2023/06/05 15:26:18;;;;;;;5.50;4.93;;;25.70;56.40;;;;;;5130205;27;20224;-71
2023/06/05 15:28:44;;;;;;;6.20;5.00;;;25.80;57.00;;;;;;5149408;27;20198;-71
2023/06/05 15:31:10;;;;;;;7.83;5.37;;;25.80;56.90;;;;;;5149133;27;20184;-71
2023/06/05 15:33:35;;;;;;;7.43;4.63;;;25.90;56.70;;;;;;5148987;27;20185;-71
2023/06/05 15:36:01;;;;;;;5.63;5.03;;;26.00;57.40;;;;;;5132074;27;20212;-71
2023/06/05 15:38:27;;;;;;;14.23;5.27;;;25.90;58.30;;;;;;5150604;27;20203;-71
2023/06/05 15:40:52;;;;;;;8.97;4.87;;;26.00;59.20;;;;;;5150673;27;20177;-71
2023/06/05 15:43:18;;;;;;;6.70;4.70;;;26.10;57.30;;;;;;5150554;27;20229;-70
2023/06/05 15:45:44;;;;;;;6.43;5.07;;;26.00;55.20;;;;;;5150621;27;20649;-72
2023/06/05 15:48:11;;;;;;;5.37;4.70;;;25.90;56.60;;;;;;5131560;27;20214;-72
2023/06/05 15:50:37;;;;;;;7.43;4.30;;;25.90;55.60;;;;;;5131390;27;20485;-72
2023/06/05 15:53:02;;;;;;;8.20;4.33;;;25.80;57.00;;;;;;5150677;27;20409;-71
2023/06/05 15:55:28;;;;;;;9.37;4.20;;;25.80;55.80;;;;;;5150534;27;20417;-71
2023/06/05 15:57:54;;;;;;;9.90;4.90;;;25.80;55.80;;;;;;5150426;27;20201;-72
2023/06/05 16:00:22;;;;;;;4.40;4.00;;;25.70;55.80;;;;;;5150536;27;20240;-72
2023/06/05 16:02:48;;;;;;;7.47;4.60;;;25.50;55.90;;;;;;5150307;27;20711;-72
2023/06/05 16:05:14;;;;;;;5.03;3.90;;;25.40;55.70;;;;;;5150173;27;20413;-72
2023/06/05 16:07:40;;;;;;;6.13;4.57;;;25.60;57.20;;;;;;5150414;27;20246;-72
2023/06/05 16:10:06;;;;;;;8.13;5.10;;;25.70;58.10;;;;;;5150443;27;20232;-71
2023/06/05 16:12:32;;;;;;;6.73;4.50;;;25.70;56.50;;;;;;5150291;27;20428;-72
2023/06/05 16:14:58;;;;;;;6.50;4.73;;;25.70;56.80;;;;;;5150415;27;20425;-72
2023/06/05 16:17:23;;;;;;;5.10;4.60;;;25.70;56.50;;;;;;5150154;27;20875;-71
2023/06/05 16:19:49;;;;;;;4.73;4.20;;;25.70;56.60;;;;;;5150176;27;20184;-71
2023/06/05 16:22:17;;;;;;;8.43;4.03;;;25.70;55.80;;;;;;5150190;27;20190;-71
2023/06/05 16:24:44;;;;;;;6.37;4.13;;;25.70;57.10;;;;;;5131401;27;20193;-71
2023/06/05 16:27:10;;;;;;;5.90;4.80;;;25.50;56.50;;;;;;5149970;27;20501;-71
2023/06/05 16:29:36;;;;;;;5.57;4.30;;;25.40;55.60;;;;;;5150387;27;20855;-71
2023/06/05 16:32:01;;;;;;;6.07;4.40;;;25.40;55.20;;;;;;5149799;27;20918;-72
2023/06/05 16:34:27;;;;;;;6.97;4.33;;;25.30;54.80;;;;;;5131585;27;20192;-72
2023/06/05 16:36:53;;;;;;;13.83;4.20;;;25.30;56.30;;;;;;5149923;27;20346;-71
2023/06/05 16:39:18;;;;;;;4.47;4.03;;;25.10;56.30;;;;;;5150312;27;20188;-71
2023/06/05 16:41:44;;;;;;;6.80;4.30;;;25.00;57.40;;;;;;5149980;27;20922;-71
2023/06/05 16:44:11;;;;;;;4.70;4.20;;;24.90;58.10;;;;;;5149940;27;20183;-70
2023/06/05 16:46:41;;;;;;;4.80;4.00;;;24.80;57.30;;;;;;5149942;27;20445;-72
2023/06/05 16:49:07;;;;;;;5.77;4.33;;;24.80;57.20;;;;;;5149944;27;20422;-71
2023/06/05 16:51:33;;;;;;;5.63;5.07;;;24.80;57.90;;;;;;5149896;27;20470;-72
2023/06/05 16:53:58;;;;;;;5.93;4.70;;;24.80;57.30;;;;;;5149957;27;20428;-72
2023/06/05 16:56:27;;;;;;;7.97;4.80;;;24.80;57.20;;;;;;5149662;27;20461;-71
2023/06/05 16:58:53;;;;;;;8.27;4.50;;;24.90;57.50;;;;;;5149855;27;20237;-71
2023/06/05 17:01:21;;;;;;;4.90;4.33;;;24.80;57.30;;;;;;5149734;27;20445;-72
2023/06/05 17:03:50;;;;;;;7.80;3.97;;;24.80;58.10;;;;;;5152605;27;20416;-70
2023/06/05 17:06:17;;;;;;;7.53;4.47;;;24.80;57.70;;;;;;5153578;27;20410;-71
2023/06/05 17:08:42;;;;;;;8.40;5.60;;;24.70;58.40;;;;;;5153993;27;20432;-71
2023/06/05 17:11:08;;;;;;;21.73;13.73;;;24.60;58.70;;;;;;5153772;27;20421;-70
2023/06/05 17:13:33;;;;;;;13.63;8.20;;;24.60;58.80;;;;;;5153880;27;20189;-71
2023/06/05 17:15:59;;;;;;;5.20;4.70;;;24.50;57.50;;;;;;5154052;27;20208;-70
2023/06/05 17:18:25;;;;;;;9.27;7.37;;;24.50;56.60;;;;;;5154277;27;20892;-70
2023/06/05 17:20:50;;;;;;;40.83;28.13;;;24.40;56.90;;;;;;5154045;27;20228;-70
2023/06/05 17:23:16;;;;;;;19.27;14.30;;;24.40;57.80;;;;;;5154209;27;20982;-70
2023/06/05 17:25:42;;;;;;;6.43;5.07;;;24.30;57.10;;;;;;5153845;27;20208;-70
2023/06/05 17:28:07;;;;;;;7.97;4.80;;;24.30;57.70;;;;;;5154077;27;20258;-70
2023/06/05 17:30:33;;;;;;;7.10;4.67;;;24.30;57.90;;;;;;5153908;27;20265;-70
2023/06/05 17:32:58;;;;;;;8.00;4.50;;;24.20;58.30;;;;;;5153835;27;20188;-70
2023/06/05 17:35:24;;;;;;;4.10;3.70;;;24.20;58.20;;;;;;5153839;27;20188;-70
2023/06/05 17:37:50;;;;;;;3.90;3.50;;;24.10;58.50;;;;;;5153641;27;20346;-70
2023/06/05 17:40:15;;;;;;;6.17;4.27;;;24.10;58.50;;;;;;5153591;27;20187;-69
2023/06/05 17:42:41;;;;;;;5.50;3.97;;;24.10;58.30;;;;;;5153797;27;20190;-69